createdAt,value
2022-09-10T00:01:31.898Z,100087.69
2022-09-10T00:04:01.399Z,100087.66
2022-09-10T00:06:30.184Z,100080.16
2022-09-10T00:09:01.874Z,100078.94
2022-09-10T00:11:32.046Z,100074.37
2022-09-10T00:14:00.682Z,100081.34
2022-09-10T00:16:29.745Z,100084.63
2022-09-10T00:18:58.254Z,100088.66
2022-09-10T00:21:26.628Z,100087.28
2022-09-10T00:23:54.847Z,100085.88
2022-09-10T00:26:25.846Z,100080.13
2022-09-10T00:28:55.072Z,100076.03
2022-09-10T00:31:24.558Z,100083.41
2022-09-10T00:33:54.740Z,100080.91
2022-09-10T00:36:24.422Z,100074.28
2022-09-10T00:38:54.825Z,100080.66
2022-09-10T00:41:25.909Z,100077.13
2022-09-10T00:43:56.434Z,100078.81
2022-09-10T00:46:37.019Z,100073.59
2022-09-10T00:49:14.597Z,100078.97
2022-09-10T00:51:44.721Z,100076.44
2022-09-10T00:54:13.680Z,100088.03
2022-09-10T00:56:43.572Z,100079.97
2022-09-10T00:59:14.331Z,100088.88
2022-09-10T01:01:43.534Z,100093.38
2022-09-10T01:04:11.851Z,100090.88
2022-09-10T01:06:41.847Z,100088.03
2022-09-10T01:09:10.672Z,100078.44
2022-09-10T01:12:05.023Z,100086.34
2022-09-10T01:14:55.992Z,100087.78
2022-09-10T01:17:32.240Z,100081.56
2022-09-10T01:20:35.248Z,100089.47
2022-09-10T01:23:29.655Z,100087.19
2022-09-10T01:26:10.160Z,100093.91
2022-09-10T01:28:44.864Z,100079.50
2022-09-10T01:31:23.350Z,100084.75
2022-09-10T01:33:58.877Z,100089.09
2022-09-10T01:36:31.222Z,100086.72
2022-09-10T01:38:59.261Z,100088.78
2022-09-10T01:41:29.120Z,100082.25
2022-09-10T01:43:59.299Z,100089.19
2022-09-10T01:46:41.635Z,100089.56
2022-09-10T01:49:30.934Z,100084.72
2022-09-10T01:52:16.865Z,100092.94
2022-09-10T01:54:56.377Z,100084.28
2022-09-10T01:57:35.324Z,100077.91
2022-09-10T02:00:09.571Z,100083.50
2022-09-10T02:02:45.139Z,100084.34
2022-09-10T02:05:14.967Z,100086.56
2022-09-10T02:07:48.919Z,100085.72
2022-09-10T02:10:17.462Z,100084.41
2022-09-10T02:12:46.567Z,100085.97
2022-09-10T02:15:18.778Z,100081.63
2022-09-10T02:17:49.155Z,100089.84
2022-09-10T02:20:19.234Z,100086.31
2022-09-10T02:22:53.071Z,100088.84
2022-09-10T02:25:21.112Z,100091.25
2022-09-10T02:27:49.548Z,100089.25
2022-09-10T02:30:20.211Z,100093.44
2022-09-10T02:32:49.232Z,100093.16
2022-09-10T02:35:17.539Z,100090.34
2022-09-10T02:37:46.069Z,100088.34
2022-09-10T02:40:14.576Z,100100.84
2022-09-10T02:42:46.711Z,100091.28
2022-09-10T02:45:15.049Z,100091.72
2022-09-10T02:47:44.470Z,100090.88
2022-09-10T02:50:12.608Z,100090.69
2022-09-10T02:52:40.650Z,100096.75
2022-09-10T02:55:09.477Z,100089.69
2022-09-10T02:57:37.386Z,100090.69
2022-09-10T03:00:06.460Z,100087.84
2022-09-10T03:02:34.531Z,100085.84
2022-09-10T03:05:05.338Z,100092.09
2022-09-10T03:07:34.370Z,100094.78
2022-09-10T03:10:02.698Z,100095.63
2022-09-10T03:12:30.624Z,100098.16
2022-09-10T03:14:59.067Z,100097.16
2022-09-10T03:17:27.492Z,100098.44
2022-09-10T03:19:55.541Z,100107.50
2022-09-10T03:22:24.708Z,100100.78
2022-09-10T03:24:52.818Z,100103.06
2022-09-10T03:27:20.830Z,100104.38
2022-09-10T03:29:48.896Z,100101.16
2022-09-10T03:32:17.084Z,100097.91
2022-09-10T03:34:45.203Z,100105.44
2022-09-10T03:37:14.159Z,100100.53
2022-09-10T03:39:44.592Z,100097.16
2022-09-10T03:42:12.663Z,100100.00
2022-09-10T03:44:41.050Z,100110.59
2022-09-10T03:47:10.015Z,100108.75
2022-09-10T03:49:39.927Z,100119.66
2022-09-10T03:52:08.038Z,100119.28
2022-09-10T03:54:37.311Z,100123.94
2022-09-10T03:57:06.866Z,100121.56
2022-09-10T03:59:35.244Z,100119.72
2022-09-10T04:02:03.851Z,100114.91
2022-09-10T04:04:32.291Z,100118.28
2022-09-10T04:07:01.016Z,100117.28
2022-09-10T04:09:28.885Z,100114.44
2022-09-10T04:11:59.628Z,100112.59
2022-09-10T04:14:29.937Z,100112.91
2022-09-10T04:16:58.953Z,100115.88
2022-09-10T04:19:27.808Z,100122.25
2022-09-10T04:21:57.914Z,100118.87
2022-09-10T04:24:26.036Z,100122.03
2022-09-10T04:26:53.908Z,100115.44
2022-09-10T04:29:23.290Z,100125.81
2022-09-10T04:31:52.798Z,100127.78
2022-09-10T04:34:22.686Z,100128.94
2022-09-10T04:36:51.152Z,100126.72
2022-09-10T04:39:19.404Z,100127.16
2022-09-10T04:41:47.418Z,100127.31
2022-09-10T04:44:17.217Z,100122.94
2022-09-10T04:46:45.485Z,100128.31
2022-09-10T04:49:15.231Z,100121.94
2022-09-10T04:51:44.216Z,100119.94
2022-09-10T04:54:14.463Z,100121.34
2022-09-10T04:56:42.783Z,100115.66
2022-09-10T04:59:11.573Z,100112.66
2022-09-10T05:01:39.776Z,100115.06
2022-09-10T05:04:07.686Z,100113.75
2022-09-10T05:06:37.792Z,100108.78
2022-09-10T05:09:06.480Z,100097.38
2022-09-10T05:11:34.550Z,100110.06
2022-09-10T05:14:03.002Z,100108.59
2022-09-10T05:16:32.165Z,100105.13
2022-09-10T05:19:00.515Z,100105.22
2022-09-10T05:21:29.135Z,100107.16
2022-09-10T05:23:58.626Z,100112.59
2022-09-10T05:26:27.645Z,100111.13
2022-09-10T05:28:59.703Z,100107.97
2022-09-10T05:31:28.563Z,100113.72
2022-09-10T05:33:56.856Z,100121.16
2022-09-10T05:36:24.725Z,100120.84
2022-09-10T05:38:55.297Z,100121.50
2022-09-10T05:41:25.208Z,100123.59
2022-09-10T05:43:54.895Z,100114.19
2022-09-10T05:46:24.277Z,100120.25
2022-09-10T05:48:54.021Z,100123.81
2022-09-10T05:51:22.497Z,100127.19
2022-09-10T05:53:50.631Z,100127.19
2022-09-10T05:56:20.519Z,100122.63
2022-09-10T05:58:50.213Z,100118.78
2022-09-10T06:01:18.839Z,100121.97
2022-09-10T06:03:47.350Z,100125.06
2022-09-10T06:06:15.472Z,100119.22
2022-09-10T06:08:44.227Z,100121.66
2022-09-10T06:11:13.426Z,100125.75
2022-09-10T06:13:42.386Z,100124.47
2022-09-10T06:16:11.825Z,100132.09
2022-09-10T06:18:41.117Z,100135.50
2022-09-10T06:21:12.527Z,100135.00
2022-09-10T06:23:42.881Z,100136.25
2022-09-10T06:26:12.768Z,100136.63
2022-09-10T06:28:41.223Z,100135.28
2022-09-10T06:31:14.228Z,100134.78
2022-09-10T06:33:42.826Z,100133.28
2022-09-10T06:36:12.442Z,100132.94
2022-09-10T06:38:41.624Z,100137.12
2022-09-10T06:41:13.861Z,100135.47
2022-09-10T06:43:43.232Z,100139.00
2022-09-10T06:46:41.115Z,100135.25
2022-09-10T06:49:04.653Z,100146.56
2022-09-10T06:51:33.818Z,100142.31
2022-09-10T06:54:02.823Z,100144.53
2022-09-10T06:56:31.090Z,100144.69
2022-09-10T06:59:02.361Z,100139.19
2022-09-10T07:01:33.002Z,100142.03
2022-09-10T07:04:02.878Z,100144.38
2022-09-10T07:06:36.134Z,100138.06
2022-09-10T07:09:05.335Z,100136.31
2022-09-10T07:11:35.943Z,100137.94
2022-09-10T07:14:08.883Z,100140.78
2022-09-10T07:16:41.719Z,100140.28
2022-09-10T07:19:09.796Z,100146.72
2022-09-10T07:21:38.469Z,100144.38
2022-09-10T07:24:07.452Z,100143.81
2022-09-10T07:26:36.028Z,100153.81
2022-09-10T07:29:05.198Z,100154.78
2022-09-10T07:31:35.193Z,100147.69
2022-09-10T07:34:05.719Z,100153.94
2022-09-10T07:36:34.011Z,100155.44
2022-09-10T07:39:03.817Z,100146.97
2022-09-10T07:41:34.697Z,100158.75
2022-09-10T07:44:03.588Z,100154.09
2022-09-10T07:46:31.827Z,100161.41
2022-09-10T07:49:01.889Z,100156.75
2022-09-10T07:51:33.052Z,100161.75
2022-09-10T07:54:01.221Z,100156.91
2022-09-10T07:56:32.387Z,100160.41
2022-09-10T07:59:02.774Z,100167.16
2022-09-10T08:01:31.955Z,100171.88
2022-09-10T08:04:00.421Z,100169.31
2022-09-10T08:06:28.843Z,100169.56
2022-09-10T08:09:00.007Z,100165.66
2022-09-10T08:11:28.261Z,100176.91
2022-09-10T08:13:57.124Z,100172.37
2022-09-10T08:16:26.879Z,100176.72
2022-09-10T08:18:57.977Z,100179.56
2022-09-10T08:21:26.843Z,100180.16
2022-09-10T08:23:55.928Z,100184.22
2022-09-10T08:26:27.435Z,100192.00
2022-09-10T08:28:57.853Z,100190.50
2022-09-10T08:31:27.209Z,100194.62
2022-09-10T08:33:56.994Z,100188.44
2022-09-10T08:36:25.614Z,100193.97
2022-09-10T08:38:59.839Z,100204.88
2022-09-10T08:41:46.980Z,100206.75
2022-09-10T08:44:27.705Z,100201.91
2022-09-10T08:47:01.079Z,100203.13
2022-09-10T08:49:34.914Z,100205.47
2022-09-10T08:52:08.961Z,100202.75
2022-09-10T08:54:41.572Z,100205.91
2022-09-10T08:57:21.491Z,100205.66
2022-09-10T08:59:53.488Z,100205.47
2022-09-10T09:02:47.821Z,100199.94
2022-09-10T09:05:19.408Z,100196.25
2022-09-10T09:07:49.607Z,100202.09
2022-09-10T09:10:31.558Z,100187.22
2022-09-10T09:13:26.288Z,100196.87
2022-09-10T09:16:05.717Z,100187.41
2022-09-10T09:18:48.236Z,100193.53
2022-09-10T09:21:17.951Z,100190.28
2022-09-10T09:24:12.242Z,100198.19
2022-09-10T09:26:46.441Z,100194.34
2022-09-10T09:29:20.336Z,100180.44
2022-09-10T09:31:53.840Z,100186.31
2022-09-10T09:34:26.228Z,100190.31
2022-09-10T09:36:57.567Z,100186.91
2022-09-10T09:39:31.250Z,100199.25
2022-09-10T09:42:05.022Z,100190.34
2022-09-10T09:44:39.884Z,100184.72
2022-09-10T09:47:08.882Z,100183.00
2022-09-10T09:49:38.628Z,100186.75
2022-09-10T09:52:19.420Z,100179.63
2022-09-10T09:57:42.836Z,100181.12
2022-09-10T10:00:36.337Z,100175.81
2022-09-10T10:03:12.785Z,100171.53
2022-09-10T10:05:40.683Z,100169.16
2022-09-10T10:08:27.569Z,100171.47
2022-09-10T10:10:55.800Z,100174.88
2022-09-10T10:13:25.101Z,100168.34
2022-09-10T10:15:54.304Z,100166.34
2022-09-10T10:18:31.699Z,100164.88
2022-09-10T10:21:18.836Z,100163.75
2022-09-10T10:23:48.161Z,100157.41
2022-09-10T10:26:27.622Z,100163.53
2022-09-10T10:28:59.802Z,100154.66
2022-09-10T10:31:42.423Z,100160.81
2022-09-10T10:34:32.432Z,100155.50
2022-09-10T10:37:09.104Z,100148.84
2022-09-10T10:40:05.127Z,100147.81
2022-09-10T10:42:38.588Z,100142.88
2022-09-10T10:45:24.595Z,100141.41
2022-09-10T10:47:57.114Z,100140.81
2022-09-10T10:50:35.052Z,100133.69
2022-09-10T10:53:25.541Z,100140.03
2022-09-10T10:56:02.837Z,100129.25
2022-09-10T10:58:54.294Z,100128.72
2022-09-10T11:01:25.583Z,100125.41
2022-09-10T11:04:02.907Z,100123.06
2022-09-10T11:06:38.313Z,100122.66
2022-09-10T11:09:13.546Z,100124.16
2022-09-10T11:11:49.392Z,100126.44
2022-09-10T11:14:23.096Z,100119.91
2022-09-10T11:16:58.529Z,100120.34
2022-09-10T11:19:36.905Z,100120.78
2022-09-10T11:22:10.602Z,100124.31
2022-09-10T11:24:44.585Z,100120.06
2022-09-10T11:27:16.634Z,100121.66
2022-09-10T11:29:52.820Z,100111.97
2022-09-10T11:32:28.330Z,100116.62
2022-09-10T11:35:05.659Z,100114.41
2022-09-10T11:37:48.223Z,100115.06
2022-09-10T11:40:24.351Z,100110.81
2022-09-10T11:42:56.483Z,100115.28
2022-09-10T11:45:36.195Z,100103.34
2022-09-10T11:48:12.457Z,100112.81
2022-09-10T11:50:49.743Z,100113.62
2022-09-10T11:53:21.749Z,100109.25
2022-09-10T11:56:14.955Z,100107.12
2022-09-10T11:58:55.636Z,100111.56
2022-09-10T12:01:41.487Z,100102.97
2022-09-10T12:04:39.862Z,100110.50
2022-09-10T12:07:21.073Z,100101.06
2022-09-10T12:10:01.609Z,100100.88
2022-09-10T12:12:39.279Z,100102.13
2022-09-10T12:15:10.557Z,100103.81
2022-09-10T12:17:43.068Z,100109.88
2022-09-10T12:20:18.993Z,100099.19
2022-09-10T12:22:53.844Z,100106.72
2022-09-10T12:25:33.648Z,100102.53
2022-09-10T12:28:05.461Z,100102.56
2022-09-10T12:31:02.877Z,100103.38
2022-09-10T12:34:12.332Z,100112.59
2022-09-10T12:37:17.844Z,100099.75
2022-09-10T12:39:47.278Z,100109.41
2022-09-10T12:42:28.625Z,100108.78
2022-09-10T12:44:56.896Z,100113.78
2022-09-10T12:47:50.209Z,100114.63
2022-09-10T12:50:23.641Z,100120.06
2022-09-10T12:53:39.720Z,100115.03
2022-09-10T12:56:58.075Z,100105.00
2022-09-10T13:00:01.934Z,100100.59
2022-09-10T13:02:33.793Z,100096.84
2022-09-10T13:05:06.218Z,100098.78
2022-09-10T13:07:40.219Z,100102.53
2022-09-10T13:10:22.027Z,100095.41
2022-09-10T13:12:55.654Z,100098.78
2022-09-10T13:15:26.520Z,100096.41
2022-09-10T13:18:24.611Z,100103.91
2022-09-10T13:20:53.240Z,100098.19
2022-09-10T13:23:23.798Z,100090.56
2022-09-10T13:25:52.722Z,100091.72
2022-09-10T13:29:01.266Z,100085.53
2022-09-10T13:31:33.287Z,100081.09
2022-09-10T13:34:29.052Z,100085.22
2022-09-10T13:37:27.996Z,100085.13
2022-09-10T13:40:22.405Z,100078.75
2022-09-10T13:43:13.810Z,100076.88
2022-09-10T13:45:47.754Z,100076.84
2022-09-10T13:48:22.011Z,100076.06
2022-09-10T13:50:57.666Z,100074.63
2022-09-10T13:53:29.278Z,100070.41
2022-09-10T13:55:59.813Z,100067.69
2022-09-10T13:58:33.322Z,100072.03
2022-09-10T14:01:03.332Z,100064.03
2022-09-10T14:03:34.550Z,100061.78
2022-09-10T14:06:05.121Z,100056.66
2022-09-10T14:08:38.435Z,100064.41
2022-09-10T14:11:10.342Z,100058.94
2022-09-10T14:13:43.142Z,100063.84
2022-09-10T14:16:13.700Z,100062.75
2022-09-10T14:18:46.726Z,100061.81
2022-09-10T14:21:15.987Z,100053.06
2022-09-10T14:23:45.858Z,100062.50
2022-09-10T14:26:23.251Z,100070.13
2022-09-10T14:28:54.487Z,100062.94
2022-09-10T14:31:35.183Z,100055.62
2022-09-10T14:34:36.090Z,100059.75
2022-09-10T14:37:37.781Z,100054.97
2022-09-10T14:40:15.851Z,100054.06
2022-09-10T14:42:43.754Z,100060.81
2022-09-10T14:45:41.197Z,100060.84
2022-09-10T14:48:29.236Z,100065.78
2022-09-10T14:51:18.459Z,100066.50
2022-09-10T14:53:50.592Z,100066.12
2022-09-10T14:56:26.349Z,100060.13
2022-09-10T14:58:59.661Z,100069.81
2022-09-10T15:01:28.606Z,100062.47
2022-09-10T15:03:57.196Z,100062.19
2022-09-10T15:06:27.033Z,100055.09
2022-09-10T15:08:56.700Z,100061.00
2022-09-10T15:11:27.156Z,100063.34
2022-09-10T15:13:56.787Z,100072.38
2022-09-10T15:16:24.720Z,100062.34
2022-09-10T15:18:52.613Z,100064.81
2022-09-10T15:21:21.170Z,100065.84
2022-09-10T15:23:50.405Z,100070.03
2022-09-10T15:26:18.274Z,100076.94
2022-09-10T15:28:46.398Z,100082.78
2022-09-10T15:31:14.310Z,100085.88
2022-09-10T15:33:43.566Z,100084.84
2022-09-10T15:36:12.026Z,100081.47
2022-09-10T15:38:39.960Z,100076.91
2022-09-10T15:41:12.923Z,100078.50
2022-09-10T15:43:43.727Z,100071.34
2022-09-10T15:46:12.954Z,100071.28
2022-09-10T15:48:41.710Z,100072.97
2022-09-10T15:51:14.804Z,100078.78
2022-09-10T15:53:43.781Z,100077.28
2022-09-10T15:56:12.992Z,100073.31
2022-09-10T15:58:41.302Z,100077.06
2022-09-10T16:01:12.482Z,100073.31
2022-09-10T16:03:46.553Z,100071.63
2022-09-10T16:06:15.423Z,100067.00
2022-09-10T16:08:47.899Z,100063.00
2022-09-10T16:11:18.089Z,100069.91
2022-09-10T16:13:46.775Z,100062.53
2022-09-10T16:16:18.998Z,100061.06
2022-09-10T16:18:48.112Z,100053.75
2022-09-10T16:21:18.554Z,100060.50
2022-09-10T16:23:48.086Z,100061.88
2022-09-10T16:26:20.053Z,100066.78
2022-09-10T16:28:51.621Z,100060.75
2022-09-10T16:31:22.566Z,100060.75
2022-09-10T16:33:54.652Z,100066.78
2022-09-10T16:36:24.996Z,100068.00
2022-09-10T16:38:54.773Z,100075.91
2022-09-10T16:41:25.352Z,100074.56
2022-09-10T16:43:55.075Z,100078.53
2022-09-10T16:46:23.370Z,100079.62
2022-09-10T16:48:53.736Z,100086.00
2022-09-10T16:51:24.375Z,100089.62
2022-09-10T16:53:57.433Z,100089.97
2022-09-10T16:56:27.071Z,100092.81
2022-09-10T16:58:54.934Z,100096.06
2022-09-10T17:01:23.324Z,100088.00
2022-09-10T17:03:52.157Z,100096.06
2022-09-10T17:06:25.125Z,100087.63
2022-09-10T17:08:57.138Z,100090.84
2022-09-10T17:11:28.258Z,100091.81
2022-09-10T17:13:57.659Z,100094.19
2022-09-10T17:16:28.081Z,100096.16
2022-09-10T17:18:58.764Z,100101.84
2022-09-10T17:21:27.057Z,100098.44
2022-09-10T17:23:56.043Z,100097.22
2022-09-10T17:26:25.081Z,100106.03
2022-09-10T17:28:56.076Z,100103.78
2022-09-10T17:31:24.999Z,100109.38
2022-09-10T17:33:53.020Z,100113.75
2022-09-10T17:36:21.147Z,100113.34
2022-09-10T17:38:49.831Z,100118.84
2022-09-10T17:41:19.302Z,100108.91
2022-09-10T17:43:47.537Z,100118.97
2022-09-10T17:46:19.114Z,100118.94
2022-09-10T17:48:47.875Z,100122.69
2022-09-10T17:51:18.187Z,100118.84
2022-09-10T17:53:46.477Z,100122.47
2022-09-10T17:56:16.790Z,100130.25
2022-09-10T17:58:44.938Z,100129.78
2022-09-10T18:01:22.615Z,100132.19
2022-09-10T18:03:53.240Z,100139.16
2022-09-10T18:06:22.506Z,100132.59
2022-09-10T18:08:51.538Z,100135.66
2022-09-10T18:11:21.800Z,100149.34
2022-09-10T18:13:52.064Z,100139.56
2022-09-10T18:16:22.457Z,100145.84
2022-09-10T18:18:55.468Z,100149.75
2022-09-10T18:21:26.062Z,100149.91
2022-09-10T18:23:55.540Z,100142.34
2022-09-10T18:26:26.028Z,100145.22
2022-09-10T18:28:57.016Z,100152.66
2022-09-10T18:31:25.652Z,100151.81
2022-09-10T18:33:55.740Z,100151.31
2022-09-10T18:36:25.366Z,100158.75
2022-09-10T18:38:53.908Z,100162.81
2022-09-10T18:41:24.686Z,100169.19
2022-09-10T18:43:54.296Z,100163.13
2022-09-10T18:46:23.525Z,100164.50
2022-09-10T18:48:52.153Z,100155.75
2022-09-10T18:51:23.508Z,100167.91
2022-09-10T18:53:54.037Z,100166.22
2022-09-10T18:56:24.170Z,100169.94
2022-09-10T18:58:55.728Z,100181.09
2022-09-10T19:01:25.371Z,100173.00
2022-09-10T19:03:54.203Z,100171.31
2022-09-10T19:06:25.517Z,100178.72
2022-09-10T19:08:55.488Z,100179.75
2022-09-10T19:11:25.482Z,100176.72
2022-09-10T19:13:55.812Z,100176.06
2022-09-10T19:16:26.691Z,100175.22
2022-09-10T19:18:57.089Z,100173.50
2022-09-10T19:21:28.802Z,100179.09
2022-09-10T19:23:59.489Z,100183.00
2022-09-10T19:26:29.100Z,100185.69
2022-09-10T19:28:58.547Z,100189.41
2022-09-10T19:31:28.362Z,100182.31
2022-09-10T19:33:57.345Z,100186.88
2022-09-10T19:36:30.289Z,100184.19
2022-09-10T19:38:59.503Z,100179.81
2022-09-10T19:41:27.754Z,100185.53
2022-09-10T19:43:56.208Z,100183.84
2022-09-10T19:46:28.218Z,100182.50
2022-09-10T19:48:59.292Z,100177.09
2022-09-10T19:51:31.130Z,100179.81
2022-09-10T19:54:00.343Z,100178.12
2022-09-10T19:56:31.195Z,100178.12
2022-09-10T19:59:00.224Z,100179.47
2022-09-10T20:01:31.435Z,100176.09
2022-09-10T20:04:01.769Z,100182.50
2022-09-10T20:06:31.421Z,100184.53
2022-09-10T20:08:59.788Z,100182.19
2022-09-10T20:11:29.919Z,100180.00
2022-09-10T20:13:59.985Z,100183.88
2022-09-10T20:16:28.839Z,100177.81
2022-09-10T20:18:56.921Z,100179.81
2022-09-10T20:21:28.256Z,100185.53
2022-09-10T20:23:57.766Z,100185.22
2022-09-10T20:26:27.122Z,100190.09
2022-09-10T20:28:57.196Z,100187.72
2022-09-10T20:31:27.055Z,100188.25
2022-09-10T20:33:57.146Z,100184.19
2022-09-10T20:36:26.617Z,100177.44
2022-09-10T20:38:55.856Z,100179.63
2022-09-10T20:41:30.029Z,100173.91
2022-09-10T20:44:00.579Z,100170.69
2022-09-10T20:46:31.277Z,100172.03
2022-09-10T20:49:02.958Z,100174.53
2022-09-10T20:51:32.771Z,100176.75
2022-09-10T20:54:00.989Z,100175.41
2022-09-10T20:56:30.255Z,100182.78
2022-09-10T20:58:58.483Z,100177.72
2022-09-10T21:01:28.647Z,100174.38
2022-09-10T21:03:59.291Z,100180.28
2022-09-10T21:06:29.160Z,100187.81
2022-09-10T21:08:57.433Z,100183.78
2022-09-10T21:11:27.327Z,100189.63
2022-09-10T21:13:58.806Z,100188.06
2022-09-10T21:16:28.464Z,100188.75
2022-09-10T21:18:58.787Z,100183.66
2022-09-10T21:21:28.438Z,100186.34
2022-09-10T21:23:58.014Z,100189.37
2022-09-10T21:26:28.102Z,100189.72
2022-09-10T21:28:58.939Z,100184.62
2022-09-10T21:31:28.250Z,100183.28
2022-09-10T21:34:02.666Z,100184.44
2022-09-10T21:36:32.712Z,100191.69
2022-09-10T21:39:02.647Z,100182.22
2022-09-10T21:41:32.644Z,100185.41
2022-09-10T21:44:04.076Z,100184.03
2022-09-10T21:46:32.660Z,100182.16
2022-09-10T21:49:01.060Z,100178.59
2022-09-10T21:51:29.099Z,100187.13
2022-09-10T21:53:58.162Z,100182.41
2022-09-10T21:56:29.475Z,100189.37
2022-09-10T21:58:59.828Z,100190.72
2022-09-10T22:01:31.418Z,100193.69
2022-09-10T22:04:01.479Z,100194.88
2022-09-10T22:06:30.787Z,100199.72
2022-09-10T22:09:00.421Z,100195.66
2022-09-10T22:11:30.481Z,100200.00
2022-09-10T22:14:01.059Z,100201.44
2022-09-10T22:16:32.021Z,100199.91
2022-09-10T22:19:02.263Z,100208.16
2022-09-10T22:21:31.017Z,100200.22
2022-09-10T22:23:59.214Z,100197.84
2022-09-10T22:26:29.052Z,100197.84
2022-09-10T22:28:59.791Z,100205.22
2022-09-10T22:31:31.229Z,100205.69
2022-09-10T22:34:01.638Z,100201.62
2022-09-10T22:36:30.955Z,100207.31
2022-09-10T22:39:01.407Z,100209.44
2022-09-10T22:41:31.577Z,100209.78
2022-09-10T22:44:00.053Z,100215.47
2022-09-10T22:46:28.748Z,100221.16
2022-09-10T22:48:58.695Z,100224.28
2022-09-10T22:51:28.815Z,100210.75
2022-09-10T22:53:58.231Z,100226.94
2022-09-10T22:56:28.060Z,100227.16
2022-09-10T22:58:57.344Z,100231.44
2022-09-10T23:01:27.389Z,100237.13
2022-09-10T23:03:59.259Z,100236.59
2022-09-10T23:06:29.055Z,100233.06
2022-09-10T23:08:59.268Z,100231.06
2022-09-10T23:11:28.988Z,100231.75
2022-09-10T23:14:01.428Z,100234.28
2022-09-10T23:16:31.089Z,100235.12
2022-09-10T23:19:02.506Z,100233.44
2022-09-10T23:21:32.115Z,100240.13
2022-09-10T23:24:01.394Z,100241.25
2022-09-10T23:26:30.282Z,100248.47
2022-09-10T23:29:00.368Z,100240.84
2022-09-10T23:31:30.100Z,100242.84
2022-09-10T23:34:01.390Z,100249.12
2022-09-10T23:36:31.339Z,100251.53
2022-09-10T23:38:59.938Z,100254.84
2022-09-10T23:41:29.792Z,100253.84
2022-09-10T23:43:58.258Z,100252.00
2022-09-10T23:46:26.709Z,100250.16
2022-09-10T23:48:54.943Z,100258.22
2022-09-10T23:51:24.903Z,100260.06
2022-09-10T23:53:54.649Z,100255.84
2022-09-10T23:56:25.614Z,100255.94
2022-09-10T23:58:53.926Z,100257.94
